Red Oak, Georgia
Current Conditions -  °F | °C
As of 4:52 AM on Sunday 23 Nov 2014 (Local Time) from KATL Reporting Station
Light Rain Light Rain  
Wind Chill: 40°   Ceiling: 500
Heat Index: 46°   Visibility: 7mi
Dew Point: 44°   Wind: 15mph
Humidity: 93%   Direction: 80°E
Pressure: 30.08"   Gusts: NA
Location:  33.63°N, 84.5°W
Report Text: KATL 230952Z 08013KT 7SM -RA OVC005 08/07 A3008 RMK AO2 SLP186 P0009 T00780067 $
Loading
Personal Weather Stations






























Interactive Weather Map New forecast layout! Learn more

10-Day Weather Forecast

Advertisements
Track Severe Weather on mobile